Time;durP1;ratioP1;P1;durP2;ratioP2;P2;SDS_P1;SDS_P2;PMS_P1;PMS_P2;Temp;Humidity;BMP_temperature;BMP_pressure;BME280_temperature;BME280_humidity;BME280_pressure;Samples;Min_cycle;Max_cycle;Signal;HPM_P1;HPM_P2
2023/04/22 08:02:03;;;;;;;3.17;2.83;;;;;;;;;;5692384;23;20047;-85
2023/04/22 08:04:29;;;;;;;3.95;3.20;;;;;;;;;;4938645;29;20118;-85
2023/04/22 08:06:56;;;;;;;3.42;3.13;;;;;;;;;;4937996;29;20055;-85
2023/04/22 09:21:15;;;;;;;2.83;2.58;;;;;;;;;;4957035;23;20487;-82
2023/04/22 09:23:51;;;;;;;2.80;2.60;;;;;;;;;;4936996;29;20059;-87
2023/04/22 09:26:21;;;;;;;3.00;2.80;;;;;;;;;;4936939;29;20035;-83
2023/04/22 09:28:57;;;;;;;3.15;2.90;;;;;;;;;;4936268;29;20075;-84
2023/04/22 09:31:23;;;;;;;3.38;3.08;;;;;;;;;;4936686;29;20024;-81
2023/04/22 09:33:55;;;;;;;3.83;3.53;;;;;;;;;;4937294;29;20039;-84
2023/04/22 09:36:32;;;;;;;3.28;2.88;;;;;;;;;;4936628;29;20038;-82
2023/04/22 09:39:06;;;;;;;3.40;3.10;;;;;;;;;;4936768;29;20028;-84
2023/04/22 09:41:37;;;;;;;3.53;3.00;;;;;;;;;;4936743;29;20027;-85
2023/04/22 09:44:04;;;;;;;2.92;2.70;;;;;;;;;;4936408;29;20031;-83
2023/04/22 09:46:30;;;;;;;3.50;3.20;;;;;;;;;;4936546;29;20168;-80
2023/04/22 09:48:58;;;;;;;83.65;11.27;;;;;;;;;;4936267;29;20063;-77
2023/04/22 09:51:24;;;;;;;48.75;7.28;;;;;;;;;;4936747;29;20032;-84
2023/04/22 09:53:58;;;;;;;4.63;3.72;;;;;;;;;;4919284;29;20391;-79
2023/04/22 09:56:41;;;;;;;3.25;2.95;;;;;;;;;;4946213;29;20034;-77
2023/04/22 09:59:07;;;;;;;3.47;3.10;;;;;;;;;;4945889;28;20036;-77
2023/04/22 10:01:40;;;;;;;3.00;2.80;;;;;;;;;;4936390;29;20024;-78
2023/04/22 10:04:08;;;;;;;2.60;2.40;;;;;;;;;;4942795;29;20080;-78
2023/04/22 10:06:34;;;;;;;3.22;2.75;;;;;;;;;;4943278;29;20042;-77
2023/04/22 10:09:00;;;;;;;3.63;3.17;;;;;;;;;;4936011;29;20138;-79
2023/04/22 10:11:26;;;;;;;3.15;2.85;;;;;;;;;;4936238;29;20023;-78
2023/04/22 10:13:52;;;;;;;3.55;3.17;;;;;;;;;;4935960;29;20024;-77
2023/04/22 10:16:20;;;;;;;3.13;2.90;;;;;;;;;;4918745;29;20392;-78
2023/04/22 10:18:46;;;;;;;3.25;2.97;;;;;;;;;;4935815;29;20024;-77
2023/04/22 10:21:13;;;;;;;3.35;3.05;;;;;;;;;;4935898;29;20027;-76
2023/04/22 10:23:44;;;;;;;3.72;3.42;;;;;;;;;;4935942;29;20087;-77
2023/04/22 10:26:10;;;;;;;5.13;3.35;;;;;;;;;;4935925;29;20463;-77
2023/04/22 10:28:43;;;;;;;3.50;3.20;;;;;;;;;;4935936;29;20030;-76
2023/04/22 10:31:21;;;;;;;4.45;3.50;;;;;;;;;;4936858;29;20545;-78
2023/04/22 10:33:46;;;;;;;4.40;4.00;;;;;;;;;;4939733;29;20043;-78
2023/04/22 10:36:19;;;;;;;6.80;6.05;;;;;;;;;;4939636;29;20027;-78
2023/04/22 10:38:53;;;;;;;9.68;7.97;;;;;;;;;;4944453;29;20063;-77
2023/04/22 10:41:28;;;;;;;8.98;7.53;;;;;;;;;;4952487;29;20473;-76
2023/04/22 10:43:59;;;;;;;12.38;7.63;;;;;;;;;;4958852;29;20035;-77
2023/04/22 10:46:31;;;;;;;10.27;7.82;;;;;;;;;;4941509;29;20039;-77
2023/04/22 10:48:57;;;;;;;8.23;6.95;;;;;;;;;;4958703;28;20024;-77
2023/04/22 10:51:42;;;;;;;7.03;5.93;;;;;;;;;;4958776;29;20031;-76
2023/04/22 10:54:26;;;;;;;6.78;4.78;;;;;;;;;;4959119;29;20514;-77
2023/04/22 10:57:03;;;;;;;6.70;4.55;;;;;;;;;;4958897;29;20039;-76
2023/04/22 10:59:30;;;;;;;5.22;4.63;;;;;;;;;;4926321;29;20062;-77
2023/04/22 11:02:05;;;;;;;5.47;4.45;;;;;;;;;;4939441;29;20390;-77
2023/04/22 11:04:31;;;;;;;6.40;4.85;;;;;;;;;;4939231;29;20028;-77
2023/04/22 11:07:13;;;;;;;6.60;5.22;;;;;;;;;;4939720;29;20034;-77
2023/04/22 11:10:03;;;;;;;5.63;4.60;;;;;;;;;;4939340;29;20027;-77
2023/04/22 11:12:37;;;;;;;5.60;5.07;;;;;;;;;;4945971;29;20034;-77
2023/04/22 11:15:06;;;;;;;4.80;4.25;;;;;;;;;;4958432;29;20023;-78
2023/04/22 11:17:32;;;;;;;4.70;4.22;;;;;;;;;;4958157;28;20510;-77
2023/04/22 11:19:58;;;;;;;5.47;4.80;;;;;;;;;;4958493;29;20039;-78
2023/04/22 11:22:24;;;;;;;6.20;4.00;;;;;;;;;;4957988;29;20090;-78
2023/04/22 11:24:57;;;;;;;4.93;4.05;;;;;;;;;;4958266;29;20059;-79
2023/04/22 11:27:26;;;;;;;4.15;3.80;;;;;;;;;;4958174;28;20102;-88
2023/04/22 11:30:03;;;;;;;4.45;4.05;;;;;;;;;;4958799;29;20556;-92
2023/04/22 11:32:29;;;;;;;5.50;3.42;;;;;;;;;;4941033;29;20079;-85
2023/04/22 11:34:55;;;;;;;3.72;3.42;;;;;;;;;;4958087;29;20039;-81
2023/04/22 11:37:21;;;;;;;3.75;3.45;;;;;;;;;;4937690;29;20027;-83
2023/04/22 11:39:47;;;;;;;4.40;3.63;;;;;;;;;;4929684;29;20024;-84
2023/04/22 11:42:12;;;;;;;5.25;3.33;;;;;;;;;;4947481;29;20111;-79
2023/04/22 11:44:38;;;;;;;4.45;3.97;;;;;;;;;;4937880;29;20030;-79
2023/04/22 11:47:04;;;;;;;4.25;3.92;;;;;;;;;;4920926;29;20020;-78
2023/04/22 11:49:31;;;;;;;4.78;4.38;;;;;;;;;;4946973;29;20028;-79
2023/04/22 11:51:57;;;;;;;5.55;4.10;;;;;;;;;;4947426;29;20147;-78
2023/04/22 11:54:34;;;;;;;4.20;3.80;;;;;;;;;;4930534;29;20035;-77
2023/04/22 11:57:07;;;;;;;6.53;5.72;;;;;;;;;;4946439;29;20028;-78
2023/04/22 11:59:33;;;;;;;6.07;5.47;;;;;;;;;;4947107;29;20466;-78
2023/04/22 12:01:59;;;;;;;6.30;5.70;;;;;;;;;;4937843;29;20031;-78
2023/04/22 12:04:24;;;;;;;6.57;5.97;;;;;;;;;;4946760;29;20027;-78
2023/04/22 12:06:52;;;;;;;7.57;6.53;;;;;;;;;;4954535;29;20027;-78
2023/04/22 12:09:18;;;;;;;7.47;6.13;;;;;;;;;;4957425;28;20063;-79
2023/04/22 12:11:46;;;;;;;8.70;7.30;;;;;;;;;;4957242;29;20031;-78
2023/04/22 12:14:12;;;;;;;8.90;7.63;;;;;;;;;;4957352;29;20027;-78
2023/04/22 12:16:41;;;;;;;11.13;9.02;;;;;;;;;;4957421;29;20027;-78
2023/04/22 12:19:07;;;;;;;11.00;7.05;;;;;;;;;;4957245;28;20047;-78
2023/04/22 12:21:32;;;;;;;11.15;8.48;;;;;;;;;;4956910;29;20049;-78
2023/04/22 12:24:02;;;;;;;10.85;8.93;;;;;;;;;;4957063;29;20066;-78
2023/04/22 12:26:27;;;;;;;12.48;11.18;;;;;;;;;;4957447;29;20028;-78
2023/04/22 12:28:55;;;;;;;12.52;9.70;;;;;;;;;;4957121;28;20027;-78
2023/04/22 12:31:21;;;;;;;12.73;10.55;;;;;;;;;;4957048;29;20031;-78
2023/04/22 12:33:46;;;;;;;12.30;10.38;;;;;;;;;;4956933;29;20514;-78
2023/04/22 12:36:12;;;;;;;15.30;13.20;;;;;;;;;;4956700;29;20031;-77
2023/04/22 12:38:38;;;;;;;13.57;11.90;;;;;;;;;;4948156;29;20450;-78
2023/04/22 12:41:04;;;;;;;16.98;12.93;;;;;;;;;;4946118;29;20035;-77
2023/04/22 12:43:35;;;;;;;12.68;10.95;;;;;;;;;;4937052;29;20028;-77
2023/04/22 12:46:07;;;;;;;15.07;13.38;;;;;;;;;;4940028;29;20035;-77
2023/04/22 12:48:34;;;;;;;16.05;13.05;;;;;;;;;;4937322;29;20024;-78
2023/04/22 12:51:00;;;;;;;15.25;13.65;;;;;;;;;;4937179;29;20514;-77
2023/04/22 12:53:26;;;;;;;12.45;11.13;;;;;;;;;;4937397;29;20052;-77
2023/04/22 12:55:52;;;;;;;14.38;11.85;;;;;;;;;;4937560;29;20123;-77
2023/04/22 12:58:17;;;;;;;11.88;10.30;;;;;;;;;;4937228;29;20052;-78
2023/04/22 13:00:43;;;;;;;13.13;11.70;;;;;;;;;;4937139;29;20028;-77
2023/04/22 13:03:08;;;;;;;16.73;14.48;;;;;;;;;;4937397;29;20079;-77
2023/04/22 13:05:33;;;;;;;15.23;13.40;;;;;;;;;;4920156;29;20038;-77
2023/04/22 13:07:59;;;;;;;17.42;14.35;;;;;;;;;;4937018;29;20039;-77
2023/04/22 13:10:26;;;;;;;17.17;13.40;;;;;;;;;;4937149;29;20027;-77
2023/04/22 13:12:53;;;;;;;18.17;14.45;;;;;;;;;;4937197;29;20090;-78
2023/04/22 13:15:19;;;;;;;17.50;14.60;;;;;;;;;;4919856;29;20042;-78
2023/04/22 13:17:44;;;;;;;16.33;13.38;;;;;;;;;;4936970;29;20027;-77
2023/04/22 13:20:12;;;;;;;19.42;15.75;;;;;;;;;;4936987;29;20360;-77
2023/04/22 13:22:39;;;;;;;17.52;14.13;;;;;;;;;;4936745;29;20046;-77
2023/04/22 13:25:05;;;;;;;18.65;15.48;;;;;;;;;;4936634;29;20024;-77
2023/04/22 13:27:31;;;;;;;19.23;14.93;;;;;;;;;;4936968;29;20023;-77
2023/04/22 13:29:56;;;;;;;18.75;15.68;;;;;;;;;;4929002;29;20062;-77
2023/04/22 13:32:22;;;;;;;21.98;16.33;;;;;;;;;;4939867;29;20038;-77
2023/04/22 13:34:47;;;;;;;18.10;14.73;;;;;;;;;;4935096;29;20023;-77
2023/04/22 13:37:18;;;;;;;18.95;15.85;;;;;;;;;;4935714;29;20064;-77
2023/04/22 13:39:43;;;;;;;20.27;15.40;;;;;;;;;;4933529;29;20031;-77
2023/04/22 13:42:09;;;;;;;20.35;16.40;;;;;;;;;;4935950;29;20034;-77
2023/04/22 13:44:34;;;;;;;24.10;17.60;;;;;;;;;;4943044;29;20036;-76
2023/04/22 13:47:00;;;;;;;20.58;16.10;;;;;;;;;;4936881;29;20023;-77
2023/04/22 13:49:26;;;;;;;21.15;15.65;;;;;;;;;;4939795;29;20043;-76
2023/04/22 13:51:52;;;;;;;17.45;13.88;;;;;;;;;;4937470;29;20427;-77
2023/04/22 13:54:17;;;;;;;20.40;14.73;;;;;;;;;;4936524;29;20062;-77
2023/04/22 13:56:43;;;;;;;16.40;13.13;;;;;;;;;;4941061;29;20118;-77
2023/04/22 13:59:08;;;;;;;17.17;13.85;;;;;;;;;;4955447;28;20026;-78
2023/04/22 14:01:34;;;;;;;19.40;14.45;;;;;;;;;;4955456;29;20082;-78
2023/04/22 14:03:59;;;;;;;15.60;12.52;;;;;;;;;;4955589;29;20489;-76
2023/04/22 14:06:25;;;;;;;18.88;15.73;;;;;;;;;;4954906;29;20023;-76
2023/04/22 14:08:51;;;;;;;15.00;12.15;;;;;;;;;;4955336;28;20023;-78
2023/04/22 14:11:16;;;;;;;20.92;15.73;;;;;;;;;;4953246;29;20034;-81
2023/04/22 14:13:43;;;;;;;21.33;17.05;;;;;;;;;;4935809;29;20435;-76
2023/04/22 14:16:10;;;;;;;19.73;15.55;;;;;;;;;;4936482;29;20024;-76
2023/04/22 14:18:37;;;;;;;20.73;16.02;;;;;;;;;;4936143;29;20455;-77
2023/04/22 14:21:08;;;;;;;20.42;15.93;;;;;;;;;;4935989;29;20024;-76
2023/04/22 14:23:35;;;;;;;21.42;16.05;;;;;;;;;;4936197;29;20028;-76
2023/04/22 14:26:00;;;;;;;21.15;15.57;;;;;;;;;;4936247;29;20028;-76
2023/04/22 14:28:26;;;;;;;21.25;16.55;;;;;;;;;;4935977;29;20383;-76
2023/04/22 14:30:52;;;;;;;19.15;15.52;;;;;;;;;;4936182;29;20032;-76
2023/04/22 14:33:19;;;;;;;17.98;13.80;;;;;;;;;;4936035;29;20119;-76
2023/04/22 14:35:44;;;;;;;24.38;17.48;;;;;;;;;;4936291;29;20431;-84
2023/04/22 14:38:11;;;;;;;33.97;18.02;;;;;;;;;;4935663;29;20031;-86
2023/04/22 14:40:37;;;;;;;22.17;16.75;;;;;;;;;;4936082;29;20494;-83
2023/04/22 14:43:05;;;;;;;26.73;16.63;;;;;;;;;;4935952;29;20034;-83
2023/04/22 14:45:32;;;;;;;27.85;18.35;;;;;;;;;;4935963;29;20398;-79
2023/04/22 14:47:58;;;;;;;65.15;19.77;;;;;;;;;;4936078;29;20028;-79
2023/04/22 14:50:24;;;;;;;22.38;15.52;;;;;;;;;;4918845;29;20036;-81
2023/04/22 14:52:50;;;;;;;23.73;17.75;;;;;;;;;;4936199;29;20028;-82
2023/04/22 14:55:17;;;;;;;33.40;23.67;;;;;;;;;;4936037;29;20038;-78
2023/04/22 14:57:42;;;;;;;32.90;21.70;;;;;;;;;;4935992;29;20031;-85
2023/04/22 15:00:08;;;;;;;27.55;19.30;;;;;;;;;;4936137;29;20496;-81
2023/04/22 15:02:34;;;;;;;20.00;14.82;;;;;;;;;;4936073;29;20028;-84
2023/04/22 15:05:00;;;;;;;30.48;20.30;;;;;;;;;;4935828;29;20383;-83
2023/04/22 15:07:25;;;;;;;22.63;16.25;;;;;;;;;;4935966;29;20111;-84
2023/04/22 15:09:52;;;;;;;22.42;13.02;;;;;;;;;;4935915;29;20064;-83
2023/04/22 15:12:17;;;;;;;22.67;14.20;;;;;;;;;;4935902;29;20103;-82
2023/04/22 15:14:43;;;;;;;24.85;15.77;;;;;;;;;;4935910;29;20491;-81
2023/04/22 15:17:08;;;;;;;23.77;15.48;;;;;;;;;;4937373;29;20562;-80
2023/04/22 15:19:34;;;;;;;52.83;14.93;;;;;;;;;;4939521;29;20040;-80
2023/04/22 15:22:00;;;;;;;18.00;11.52;;;;;;;;;;4938871;29;20403;-79
2023/04/22 15:24:26;;;;;;;18.17;12.52;;;;;;;;;;4922005;29;20032;-82
2023/04/22 15:26:52;;;;;;;27.45;12.32;;;;;;;;;;4922105;29;20490;-80
2023/04/22 15:29:18;;;;;;;13.57;9.68;;;;;;;;;;4939292;29;20031;-80
2023/04/22 15:31:44;;;;;;;15.70;12.05;;;;;;;;;;4938708;29;20050;-83
2023/04/22 15:34:11;;;;;;;23.63;17.08;;;;;;;;;;4939087;29;20024;-82
2023/04/22 15:36:36;;;;;;;21.60;14.20;;;;;;;;;;4938819;29;20062;-82
2023/04/22 15:39:03;;;;;;;18.83;13.30;;;;;;;;;;4938802;29;20063;-81
2023/04/22 15:41:28;;;;;;;76.50;17.02;;;;;;;;;;4938865;29;20043;-81
2023/04/22 15:43:54;;;;;;;25.17;11.77;;;;;;;;;;4939124;29;20032;-86
2023/04/22 15:46:20;;;;;;;14.50;11.57;;;;;;;;;;4938584;29;20082;-81
2023/04/22 15:48:47;;;;;;;133.50;20.60;;;;;;;;;;4938482;29;20098;-80
2023/04/22 15:51:17;;;;;;;42.53;13.90;;;;;;;;;;4938653;29;20027;-83
2023/04/22 15:53:46;;;;;;;26.42;15.73;;;;;;;;;;4938524;29;20372;-83
2023/04/22 15:56:12;;;;;;;26.77;11.63;;;;;;;;;;4938283;29;20078;-81
2023/04/22 15:58:38;;;;;;;14.07;9.52;;;;;;;;;;4937855;29;20058;-81
2023/04/22 16:01:04;;;;;;;12.65;9.23;;;;;;;;;;4970119;23;20050;-81
2023/04/22 16:03:30;;;;;;;10.40;8.40;;;;;;;;;;4976033;28;20035;-82
2023/04/22 16:05:55;;;;;;;9.85;8.02;;;;;;;;;;4976854;28;20509;-81
2023/04/22 16:08:21;;;;;;;8.18;6.88;;;;;;;;;;4965321;28;20027;-82
2023/04/22 16:10:46;;;;;;;8.90;6.80;;;;;;;;;;4957146;29;20027;-82
2023/04/22 16:13:12;;;;;;;27.23;8.73;;;;;;;;;;4957312;29;20035;-80
2023/04/22 16:15:37;;;;;;;18.25;9.77;;;;;;;;;;4957755;29;20031;-77
2023/04/22 16:18:06;;;;;;;11.23;8.38;;;;;;;;;;4957012;28;20470;-75
2023/04/22 16:20:32;;;;;;;10.88;8.45;;;;;;;;;;4940475;29;20114;-75
2023/04/22 16:22:57;;;;;;;10.00;7.50;;;;;;;;;;4957275;29;20062;-87
2023/04/22 16:25:23;;;;;;;8.63;6.28;;;;;;;;;;4939984;29;20114;-80
2023/04/22 16:27:48;;;;;;;8.48;6.93;;;;;;;;;;4956856;28;20035;-81
2023/04/22 16:30:14;;;;;;;13.38;8.50;;;;;;;;;;4956262;28;20031;-81
2023/04/22 16:32:40;;;;;;;13.05;9.38;;;;;;;;;;4957218;29;20034;-81
2023/04/22 16:35:06;;;;;;;12.13;8.75;;;;;;;;;;4956852;29;20386;-81
2023/04/22 16:37:32;;;;;;;12.52;8.73;;;;;;;;;;4956813;28;20465;-81
2023/04/22 16:39:58;;;;;;;9.32;7.68;;;;;;;;;;4956676;29;20039;-80
2023/04/22 16:42:24;;;;;;;10.27;7.55;;;;;;;;;;4956626;29;20023;-80
2023/04/22 16:44:50;;;;;;;8.18;7.15;;;;;;;;;;4939550;29;20114;-80
2023/04/22 16:47:15;;;;;;;8.82;7.00;;;;;;;;;;4956691;28;20027;-81
2023/04/22 16:49:41;;;;;;;8.85;6.10;;;;;;;;;;4956754;29;20114;-81
2023/04/22 16:52:06;;;;;;;7.72;6.25;;;;;;;;;;4956649;29;20027;-80
2023/04/22 16:54:33;;;;;;;7.72;6.30;;;;;;;;;;4956676;29;20055;-81
2023/04/22 16:56:58;;;;;;;8.70;6.07;;;;;;;;;;4956306;28;20031;-81
2023/04/22 16:59:24;;;;;;;7.50;6.10;;;;;;;;;;4938976;28;20114;-81
2023/04/22 17:01:49;;;;;;;8.68;6.97;;;;;;;;;;4956589;29;20043;-81
2023/04/22 17:04:15;;;;;;;8.82;7.28;;;;;;;;;;4956518;29;20040;-78
2023/04/22 17:06:40;;;;;;;8.13;6.55;;;;;;;;;;4956604;29;20034;-79
2023/04/22 17:09:06;;;;;;;25.08;14.10;;;;;;;;;;4956221;28;20032;-82
2023/04/22 17:11:31;;;;;;;15.30;10.30;;;;;;;;;;4955940;29;20062;-81
2023/04/22 17:13:57;;;;;;;13.68;9.15;;;;;;;;;;4954539;29;20027;-81
2023/04/22 17:16:23;;;;;;;11.43;9.13;;;;;;;;;;4955996;29;20537;-82
2023/04/22 17:18:48;;;;;;;9.70;7.97;;;;;;;;;;4955640;28;20035;-78
2023/04/22 17:21:15;;;;;;;9.00;6.95;;;;;;;;;;4955447;29;20382;-82
2023/04/22 17:23:41;;;;;;;6.70;5.47;;;;;;;;;;4955983;29;20027;-79
2023/04/22 17:26:06;;;;;;;7.78;6.70;;;;;;;;;;4956513;29;20066;-80
2023/04/22 17:28:32;;;;;;;8.10;6.57;;;;;;;;;;4955788;29;20106;-84
2023/04/22 17:30:57;;;;;;;8.23;6.95;;;;;;;;;;4955744;29;20078;-82
2023/04/22 17:33:22;;;;;;;8.27;7.18;;;;;;;;;;4955739;29;20365;-81
2023/04/22 17:35:48;;;;;;;7.68;6.72;;;;;;;;;;4955755;29;20023;-84
2023/04/22 17:38:13;;;;;;;8.55;6.60;;;;;;;;;;4955419;28;20031;-81
2023/04/22 17:40:39;;;;;;;9.10;7.53;;;;;;;;;;4954620;28;20106;-79
2023/04/22 17:43:04;;;;;;;8.85;6.90;;;;;;;;;;4955557;29;20095;-84
2023/04/22 17:45:30;;;;;;;8.43;6.82;;;;;;;;;;4955835;29;20066;-85
2023/04/22 17:47:55;;;;;;;10.75;8.57;;;;;;;;;;4955398;28;20082;-85
2023/04/22 17:50:22;;;;;;;9.25;7.47;;;;;;;;;;4938495;29;20034;-84
2023/04/22 17:52:47;;;;;;;9.52;7.25;;;;;;;;;;4955787;29;20027;-85
2023/04/22 17:55:13;;;;;;;8.35;6.63;;;;;;;;;;4955801;29;20093;-86
2023/04/22 17:57:38;;;;;;;7.15;6.32;;;;;;;;;;4955802;28;20029;-84
2023/04/22 18:00:04;;;;;;;10.85;9.05;;;;;;;;;;4960942;28;20497;-83
2023/04/22 18:02:30;;;;;;;11.77;9.23;;;;;;;;;;4960486;28;20024;-84
2023/04/22 18:04:55;;;;;;;9.82;8.38;;;;;;;;;;4955447;29;20074;-83
2023/04/22 18:07:21;;;;;;;12.93;10.80;;;;;;;;;;4955433;29;20154;-83
2023/04/22 18:09:48;;;;;;;11.65;8.68;;;;;;;;;;4955307;29;20398;-85
2023/04/22 18:12:13;;;;;;;11.40;9.60;;;;;;;;;;4955706;29;20027;-84
2023/04/22 18:14:40;;;;;;;11.27;9.30;;;;;;;;;;4953941;29;20034;-84
2023/04/22 18:17:05;;;;;;;8.40;7.43;;;;;;;;;;4954989;28;20034;-83
2023/04/22 18:19:31;;;;;;;10.95;9.10;;;;;;;;;;4955239;29;20035;-84
2023/04/22 18:21:56;;;;;;;14.25;9.70;;;;;;;;;;4955321;29;20475;-83
2023/04/22 18:24:22;;;;;;;12.00;8.27;;;;;;;;;;4937889;29;20039;-83
2023/04/22 18:26:48;;;;;;;9.85;7.53;;;;;;;;;;4955167;29;20023;-84
2023/04/22 18:29:13;;;;;;;8.38;7.32;;;;;;;;;;4955584;28;20035;-85
2023/04/22 18:31:39;;;;;;;9.40;7.07;;;;;;;;;;4955033;29;20543;-82
2023/04/22 18:34:05;;;;;;;8.90;6.95;;;;;;;;;;4955667;29;20068;-82
2023/04/22 18:36:30;;;;;;;8.25;6.40;;;;;;;;;;4955309;29;20466;-83
2023/04/22 18:38:56;;;;;;;6.97;6.10;;;;;;;;;;4954947;29;20034;-83
2023/04/22 18:41:24;;;;;;;10.30;8.27;;;;;;;;;;4955005;29;20083;-82
2023/04/22 18:43:49;;;;;;;8.07;7.28;;;;;;;;;;4955203;29;20031;-81
2023/04/22 18:46:15;;;;;;;8.27;7.10;;;;;;;;;;4954788;29;20020;-79
2023/04/22 18:48:40;;;;;;;7.65;6.85;;;;;;;;;;4954798;29;20035;-83
2023/04/22 18:51:05;;;;;;;6.95;6.00;;;;;;;;;;4954885;29;20478;-79
2023/04/22 18:53:33;;;;;;;6.53;5.85;;;;;;;;;;4958111;28;20383;-83
2023/04/22 18:55:58;;;;;;;8.02;6.15;;;;;;;;;;4958873;29;20467;-84
2023/04/22 18:58:24;;;;;;;7.30;6.00;;;;;;;;;;4958365;28;20031;-84
2023/04/22 19:00:50;;;;;;;8.43;7.00;;;;;;;;;;4958543;29;20074;-82
2023/04/22 19:03:15;;;;;;;8.40;6.75;;;;;;;;;;4958405;29;20031;-82
2023/04/22 19:05:42;;;;;;;7.47;6.35;;;;;;;;;;4958368;29;20038;-82
2023/04/22 19:08:07;;;;;;;9.18;7.40;;;;;;;;;;4941101;29;20470;-84
2023/04/22 19:10:33;;;;;;;9.23;6.57;;;;;;;;;;4958233;29;20074;-86
2023/04/22 19:12:58;;;;;;;8.88;6.82;;;;;;;;;;4958343;29;20106;-83
2023/04/22 19:15:24;;;;;;;6.97;6.28;;;;;;;;;;4944134;28;20065;-83
2023/04/22 19:17:49;;;;;;;9.25;7.45;;;;;;;;;;4957814;29;20493;-81
2023/04/22 19:20:15;;;;;;;6.95;6.20;;;;;;;;;;4958923;29;20073;-82
2023/04/22 19:22:41;;;;;;;8.10;6.50;;;;;;;;;;4958527;29;20032;-81
2023/04/22 19:25:07;;;;;;;9.15;6.38;;;;;;;;;;4958332;29;20028;-80
2023/04/22 19:27:33;;;;;;;7.95;6.40;;;;;;;;;;4957950;29;20050;-84
2023/04/22 19:29:58;;;;;;;7.13;5.65;;;;;;;;;;4960693;28;20375;-82
2023/04/22 19:32:24;;;;;;;8.52;6.70;;;;;;;;;;4957888;29;20033;-83
2023/04/22 19:34:50;;;;;;;6.90;6.20;;;;;;;;;;4968621;28;20058;-84
2023/04/22 19:37:16;;;;;;;6.25;5.20;;;;;;;;;;4957921;29;20065;-83
2023/04/22 19:39:41;;;;;;;5.60;5.10;;;;;;;;;;4960750;28;20039;-89
2023/04/22 19:42:07;;;;;;;7.00;5.65;;;;;;;;;;4957683;29;20422;-82
2023/04/22 19:44:33;;;;;;;7.93;6.30;;;;;;;;;;4956781;28;20031;-88
2023/04/22 19:46:59;;;;;;;7.22;6.15;;;;;;;;;;4961091;28;20030;-81
2023/04/22 19:49:25;;;;;;;6.63;5.50;;;;;;;;;;4945513;29;20023;-96
2023/04/22 19:51:52;;;;;;;16.25;11.10;;;;;;;;;;4943576;29;20031;-96
2023/04/22 19:54:21;;;;;;;13.70;10.02;;;;;;;;;;4959962;29;20430;-95
2023/04/22 19:56:50;;;;;;;12.75;9.90;;;;;;;;;;4942119;29;20027;-81
2023/04/22 19:59:15;;;;;;;11.32;8.15;;;;;;;;;;4940949;29;20027;-94
2023/04/22 20:01:41;;;;;;;10.05;7.20;;;;;;;;;;4958044;28;20058;-78
2023/04/22 20:04:07;;;;;;;8.35;6.78;;;;;;;;;;4940073;29;20078;-78
2023/04/22 20:06:33;;;;;;;8.30;7.45;;;;;;;;;;4958901;29;20126;-93
2023/04/22 20:09:04;;;;;;;8.68;6.97;;;;;;;;;;4940367;29;20049;-93
2023/04/22 20:11:31;;;;;;;7.50;6.68;;;;;;;;;;4941299;29;20063;-82
2023/04/22 20:13:57;;;;;;;7.95;7.13;;;;;;;;;;4939930;29;20094;-79
2023/04/22 20:16:23;;;;;;;9.60;7.10;;;;;;;;;;4941016;29;20118;-80
2023/04/22 20:18:49;;;;;;;7.78;6.60;;;;;;;;;;4939818;29;20038;-79
2023/04/22 20:21:17;;;;;;;6.40;5.80;;;;;;;;;;4939526;29;20402;-78
2023/04/22 20:23:45;;;;;;;9.00;7.30;;;;;;;;;;4939784;29;20099;-81
2023/04/22 20:26:12;;;;;;;7.68;5.90;;;;;;;;;;4939717;29;20117;-81
2023/04/22 20:28:46;;;;;;;8.02;5.80;;;;;;;;;;4939326;29;20200;-78
2023/04/22 20:31:13;;;;;;;6.45;5.30;;;;;;;;;;4956798;29;20027;-78
2023/04/22 20:33:40;;;;;;;6.40;5.22;;;;;;;;;;4939553;29;20088;-78
2023/04/22 20:36:06;;;;;;;6.93;5.63;;;;;;;;;;4939221;29;20031;-78
2023/04/22 20:38:36;;;;;;;6.57;5.93;;;;;;;;;;4939799;29;20492;-91
2023/04/22 20:41:18;;;;;;;9.18;7.07;;;;;;;;;;4957666;29;20036;-95
2023/04/22 20:43:45;;;;;;;10.55;7.70;;;;;;;;;;4940166;29;20019;-80
2023/04/22 20:46:11;;;;;;;10.27;6.93;;;;;;;;;;4939212;29;20434;-78
2023/04/22 20:48:37;;;;;;;9.07;7.32;;;;;;;;;;4956961;28;20106;-78
2023/04/22 20:51:03;;;;;;;7.60;6.50;;;;;;;;;;4937990;29;20126;-80
2023/04/22 20:53:29;;;;;;;6.43;5.78;;;;;;;;;;4939273;29;20447;-90
2023/04/22 20:55:56;;;;;;;6.53;5.93;;;;;;;;;;4940702;29;20118;-92
2023/04/22 20:58:21;;;;;;;6.63;5.93;;;;;;;;;;4938982;29;20032;-80
2023/04/22 21:00:47;;;;;;;7.93;6.25;;;;;;;;;;4946534;29;20049;-95
2023/04/22 21:03:17;;;;;;;6.43;5.70;;;;;;;;;;4966520;29;20413;-94
2023/04/22 21:05:43;;;;;;;7.85;6.07;;;;;;;;;;4957576;29;20027;-79
2023/04/22 21:08:32;;;;;;;7.78;6.18;;;;;;;;;;4938833;29;20028;-78
2023/04/22 21:11:02;;;;;;;7.90;5.83;;;;;;;;;;4960752;29;20023;-95
2023/04/22 21:13:28;;;;;;;7.60;6.03;;;;;;;;;;4961750;29;20055;-79
2023/04/22 21:15:55;;;;;;;10.15;7.35;;;;;;;;;;4955706;28;20105;-79
2023/04/22 21:18:24;;;;;;;7.18;6.43;;;;;;;;;;4919821;29;20042;-80
2023/04/22 21:20:51;;;;;;;7.78;6.97;;;;;;;;;;4934389;29;20134;-80
2023/04/22 21:23:18;;;;;;;10.15;7.03;;;;;;;;;;4925827;29;20035;-83
2023/04/22 21:25:46;;;;;;;8.63;7.45;;;;;;;;;;4945925;28;20058;-81
2023/04/22 21:28:11;;;;;;;8.15;6.60;;;;;;;;;;4956693;28;20031;-92
2023/04/22 21:30:37;;;;;;;8.27;6.20;;;;;;;;;;4956447;29;20438;-80
2023/04/22 21:33:03;;;;;;;7.28;6.57;;;;;;;;;;4956972;29;20031;-91
2023/04/22 21:35:28;;;;;;;9.40;6.93;;;;;;;;;;4956874;29;20030;-80
2023/04/22 21:37:54;;;;;;;8.13;6.65;;;;;;;;;;4957578;28;20486;-80
2023/04/22 21:40:19;;;;;;;8.07;6.57;;;;;;;;;;4957290;29;20095;-89
2023/04/22 21:42:45;;;;;;;6.28;5.40;;;;;;;;;;4956811;29;20398;-92
2023/04/22 21:45:10;;;;;;;9.05;6.40;;;;;;;;;;4956200;29;20035;-93
2023/04/22 21:47:36;;;;;;;8.73;6.97;;;;;;;;;;4956772;28;20027;-94
2023/04/22 21:50:01;;;;;;;8.15;6.60;;;;;;;;;;4956301;29;20027;-80
2023/04/22 21:52:26;;;;;;;8.38;7.03;;;;;;;;;;4955337;29;20023;-94
2023/04/22 21:54:52;;;;;;;8.95;6.72;;;;;;;;;;4956535;29;20023;-88
2023/04/22 21:57:17;;;;;;;8.68;6.38;;;;;;;;;;4956126;28;20067;-94
2023/04/22 21:59:43;;;;;;;6.85;6.15;;;;;;;;;;4955535;29;20137;-82
2023/04/22 22:02:08;;;;;;;7.35;6.10;;;;;;;;;;4955256;29;20035;-87
2023/04/22 22:04:34;;;;;;;7.88;6.88;;;;;;;;;;4954849;29;20031;-83
